Time;durP1;ratioP1;P1;durP2;ratioP2;P2;SDS_P1;SDS_P2;PMS_P1;PMS_P2;Temp;Humidity;BMP_temperature;BMP_pressure;BME280_temperature;BME280_humidity;BME280_pressure;Samples;Min_cycle;Max_cycle;Signal;HPM_P1;HPM_P2
2022/03/25 00:03:37;;;;;;;27.17;23.53;;;;;;;11.31;35.28;98886.84;8345595;28;20291;-65
2022/03/25 00:07:41;;;;;;;27.83;23.77;;;;;;;11.27;35.11;98883.50;8346410;28;20243;-65
2022/03/25 00:11:45;;;;;;;33.53;23.87;;;;;;;11.16;35.63;98888.19;8346576;28;20232;-65
2022/03/25 00:15:49;;;;;;;28.23;23.47;;;;;;;11.21;35.34;98883.69;8346648;28;20236;-66
2022/03/25 00:19:52;;;;;;;25.30;22.50;;;;;;;11.20;35.37;98884.59;8346282;28;20231;-65
2022/03/25 00:23:55;;;;;;;30.00;22.80;;;;;;;10.94;35.77;98888.00;8343177;28;20423;-65
2022/03/25 00:27:58;;;;;;;27.07;23.13;;;;;;;10.95;35.56;98885.38;8343415;28;20251;-65
2022/03/25 00:32:06;;;;;;;26.00;23.00;;;;;;;10.91;35.73;98888.13;8346361;28;20575;-65
2022/03/25 00:36:10;;;;;;;28.00;23.37;;;;;;;10.87;35.80;98895.16;8351067;28;20542;-65
2022/03/25 00:40:13;;;;;;;27.20;23.30;;;;;;;10.83;36.06;98883.16;8352061;28;20227;-66
2022/03/25 00:44:18;;;;;;;25.83;22.80;;;;;;;10.74;36.24;98878.28;8352378;28;20255;-66
2022/03/25 00:48:22;;;;;;;27.13;23.13;;;;;;;10.59;36.63;98874.41;8352160;28;20251;-66
2022/03/25 00:52:25;;;;;;;26.00;23.30;;;;;;;10.50;36.82;98874.66;8351977;28;20238;-66
2022/03/25 00:56:29;;;;;;;25.43;22.63;;;;;;;10.46;36.88;98870.47;8351928;28;20309;-65
2022/03/25 01:00:32;;;;;;;28.63;23.40;;;;;;;10.34;36.92;98876.88;8351883;28;20306;-65
2022/03/25 01:04:36;;;;;;;29.20;22.57;;;;;;;10.47;36.75;98864.38;8351406;28;20270;-65
2022/03/25 01:08:39;;;;;;;27.00;23.43;;;;;;;10.36;36.70;98865.56;8351352;28;20429;-65
2022/03/25 01:12:42;;;;;;;29.73;23.20;;;;;;;10.30;37.05;98868.34;8329851;28;20236;-65
2022/03/25 01:16:45;;;;;;;26.23;22.67;;;;;;;10.29;37.02;98871.78;8318223;28;20252;-66
2022/03/25 01:20:50;;;;;;;28.03;23.43;;;;;;;10.19;37.00;98862.59;8348784;28;20424;-66
2022/03/25 01:24:53;;;;;;;28.67;24.10;;;;;;;10.27;37.01;98858.03;8351043;28;20586;-65
2022/03/25 01:28:58;;;;;;;26.90;22.40;;;;;;;10.23;37.29;98853.00;8350799;28;20240;-66
2022/03/25 01:33:03;;;;;;;29.13;24.30;;;;;;;10.18;37.19;98859.16;8350631;28;20244;-65
2022/03/25 01:37:07;;;;;;;32.67;24.13;;;;;;;10.13;37.37;98861.00;8350701;28;20236;-65
2022/03/25 01:41:10;;;;;;;32.60;24.13;;;;;;;10.09;37.47;98853.38;8349966;28;20227;-67
2022/03/25 01:45:14;;;;;;;29.83;24.50;;;;;;;10.02;37.44;98857.03;8352490;28;20208;-66
2022/03/25 01:49:17;;;;;;;31.30;24.70;;;;;;;10.04;37.61;98853.50;8352535;28;20300;-66
2022/03/25 01:53:23;;;;;;;32.63;24.50;;;;;;;10.00;37.26;98857.06;8352286;28;20224;-66
2022/03/25 01:57:26;;;;;;;28.75;25.73;;;;;;;10.30;36.86;98855.38;8340451;28;20415;-65
2022/03/25 02:01:29;;;;;;;33.20;24.60;;;;;;;9.96;37.53;98850.28;8346103;28;20491;-66
2022/03/25 02:05:32;;;;;;;28.20;24.57;;;;;;;9.97;37.39;98849.38;8333901;28;20240;-66
2022/03/25 02:09:37;;;;;;;31.47;24.00;;;;;;;9.92;37.67;98839.19;8332476;28;20452;-65
2022/03/25 02:13:40;;;;;;;26.07;23.27;;;;;;;9.86;37.62;98841.06;8333854;28;20300;-65
2022/03/25 02:17:43;;;;;;;27.97;22.83;;;;;;;9.86;37.70;98841.06;8349337;28;20242;-65
2022/03/25 02:21:48;;;;;;;30.43;24.30;;;;;;;9.72;38.05;98833.69;8349468;28;20231;-65
2022/03/25 02:25:54;;;;;;;25.03;22.33;;;;;;;9.62;38.12;98834.84;8349228;28;20244;-65
2022/03/25 02:29:57;;;;;;;27.80;22.77;;;;;;;9.68;38.17;98834.66;8349110;28;20553;-65
2022/03/25 02:34:03;;;;;;;26.73;23.83;;;;;;;9.58;38.10;98842.66;8348688;28;20243;-65
2022/03/25 02:38:09;;;;;;;27.63;22.67;;;;;;;9.65;37.98;98838.16;8348856;28;20239;-65
2022/03/25 02:42:11;;;;;;;27.63;24.77;;;;;;;9.46;38.33;98837.84;8339338;28;20410;-65
2022/03/25 02:46:15;;;;;;;29.90;25.37;;;;;;;9.31;38.54;98839.06;8348096;28;20259;-67
2022/03/25 02:50:18;;;;;;;30.30;25.10;;;;;;;9.39;38.37;98844.03;8348039;28;20236;-66
2022/03/25 02:54:22;;;;;;;29.67;25.50;;;;;;;9.28;38.46;98846.88;8348193;28;20238;-65
2022/03/25 02:58:25;;;;;;;32.07;24.27;;;;;;;9.36;38.59;98844.94;8347322;28;20232;-65
2022/03/25 03:02:28;;;;;;;29.40;24.07;;;;;;;9.18;39.24;98842.84;8347833;28;20236;-65
2022/03/25 03:06:32;;;;;;;31.20;26.13;;;;;;;9.20;38.99;98841.06;8347625;28;20592;-65
2022/03/25 03:10:36;;;;;;;27.77;24.80;;;;;;;9.32;38.58;98848.50;8347828;28;20250;-65
2022/03/25 03:14:42;;;;;;;30.30;24.50;;;;;;;9.18;39.07;98850.59;8347699;28;20232;-65
2022/03/25 03:18:47;;;;;;;28.37;24.23;;;;;;;9.23;38.94;98860.81;8347338;28;20239;-65
2022/03/25 03:22:49;;;;;;;32.33;25.17;;;;;;;8.97;39.50;98857.13;8347613;28;20239;-65
2022/03/25 03:26:54;;;;;;;28.27;24.90;;;;;;;8.98;39.68;98853.66;8347441;28;20236;-65
2022/03/25 03:30:57;;;;;;;28.37;24.43;;;;;;;9.02;39.93;98863.03;8347575;28;20531;-65
2022/03/25 03:35:00;;;;;;;27.37;24.37;;;;;;;8.97;40.63;98857.13;8347278;28;20239;-65
2022/03/25 03:39:03;;;;;;;28.37;24.43;;;;;;;9.02;40.41;98857.00;8347121;28;20243;-65
2022/03/25 03:43:08;;;;;;;29.70;24.87;;;;;;;8.88;40.51;98854.75;8347020;28;20236;-65
2022/03/25 03:47:11;;;;;;;28.73;24.30;;;;;;;8.93;40.77;98843.44;8346218;28;20239;-65
2022/03/25 03:51:15;;;;;;;31.03;24.87;;;;;;;9.01;40.71;98851.00;8347111;28;20231;-65
2022/03/25 03:55:21;;;;;;;28.73;25.40;;;;;;;8.82;40.41;98852.31;8346802;28;20543;-65
2022/03/25 03:59:25;;;;;;;27.67;24.63;;;;;;;8.78;40.25;98844.63;8347267;28;20232;-65
2022/03/25 04:03:29;;;;;;;27.33;24.40;;;;;;;8.80;40.08;98834.28;8346726;28;21924;-65
2022/03/25 04:07:32;;;;;;;28.10;23.10;;;;;;;8.87;39.92;98834.97;8347014;28;20255;-67
2022/03/25 04:11:35;;;;;;;27.63;23.50;;;;;;;8.69;40.55;98838.84;8353259;28;20231;-65
2022/03/25 04:15:40;;;;;;;28.10;23.33;;;;;;;8.61;40.51;98851.94;8353077;28;20235;-65
2022/03/25 04:19:43;;;;;;;31.63;24.43;;;;;;;8.56;40.36;98851.16;8353096;28;20285;-65
2022/03/25 04:23:46;;;;;;;30.63;24.57;;;;;;;8.51;40.42;98845.25;8353115;28;20231;-65
2022/03/25 04:27:50;;;;;;;31.23;25.77;;;;;;;8.57;40.29;98850.28;8352748;28;20240;-65
2022/03/25 04:31:55;;;;;;;28.67;25.53;;;;;;;8.54;40.35;98846.03;8352701;28;20403;-64
2022/03/25 04:35:58;;;;;;;29.43;26.17;;;;;;;8.46;40.45;98855.69;8352486;28;20432;-65
2022/03/25 04:40:01;;;;;;;32.00;26.17;;;;;;;8.41;40.60;98850.63;8352526;28;20243;-65
2022/03/25 04:44:04;;;;;;;29.97;25.63;;;;;;;8.39;40.66;98861.81;8352146;28;20299;-65
2022/03/25 04:48:10;;;;;;;31.07;26.27;;;;;;;8.34;40.56;98861.06;8352297;28;20569;-64
2022/03/25 04:52:15;;;;;;;28.00;24.67;;;;;;;8.41;40.68;98866.13;8351937;28;20291;-65
2022/03/25 04:56:18;;;;;;;33.53;27.13;;;;;;;8.31;41.15;98866.31;8351959;28;20235;-65
2022/03/25 05:00:21;;;;;;;28.23;24.93;;;;;;;8.16;41.00;98865.72;8352017;28;20435;-65
2022/03/25 05:04:25;;;;;;;30.80;26.13;;;;;;;8.17;40.96;98869.19;8351633;28;20448;-65
2022/03/25 05:08:28;;;;;;;32.13;25.87;;;;;;;8.19;40.70;98868.25;8351373;28;20244;-65
2022/03/25 05:12:31;;;;;;;30.30;26.40;;;;;;;8.16;40.98;98873.47;8343273;28;20232;-65
2022/03/25 05:16:34;;;;;;;30.47;26.00;;;;;;;8.21;40.87;98873.38;8351389;28;20240;-65
2022/03/25 05:20:38;;;;;;;33.97;27.07;;;;;;;8.17;41.00;98882.06;8350731;28;20235;-65
2022/03/25 05:24:41;;;;;;;32.77;27.17;;;;;;;8.11;41.54;98885.63;8351381;28;20228;-65
2022/03/25 05:28:45;;;;;;;31.30;27.87;;;;;;;8.15;41.04;98889.84;8351086;28;20250;-65
2022/03/25 05:32:48;;;;;;;31.73;27.83;;;;;;;8.30;40.92;98899.00;8350885;28;20232;-65
2022/03/25 05:37:06;;;;;;;32.90;27.97;;;;;;;8.40;40.64;98894.50;8350862;28;20296;-65
2022/03/25 05:41:09;;;;;;;32.10;28.33;;;;;;;8.60;40.39;98901.84;8350237;28;20522;-66
2022/03/25 05:45:13;;;;;;;31.23;27.93;;;;;;;8.73;40.04;98902.44;8350261;28;20231;-65
2022/03/25 05:49:16;;;;;;;30.77;27.13;;;;;;;8.94;39.45;98916.63;8338492;28;20240;-64
2022/03/25 05:53:20;;;;;;;31.67;27.67;;;;;;;9.02;39.61;98901.78;8335862;28;20239;-66
2022/03/25 05:57:23;;;;;;;29.63;26.27;;;;;;;9.25;39.04;98911.56;8350157;28;20232;-66
2022/03/25 06:01:26;;;;;;;30.40;27.07;;;;;;;9.46;38.90;98915.41;8316977;28;20236;-65
2022/03/25 06:05:29;;;;;;;34.33;27.93;;;;;;;9.63;38.79;98916.69;8316769;28;20575;-65
2022/03/25 06:09:34;;;;;;;29.50;26.30;;;;;;;9.72;38.49;98911.28;8317012;28;20249;-65
2022/03/25 06:13:37;;;;;;;32.10;27.20;;;;;;;10.08;38.00;98911.22;8316961;28;20236;-65
2022/03/25 06:17:44;;;;;;;37.00;26.77;;;;;;;10.11;37.88;98918.88;8316565;28;20240;-65
2022/03/25 06:21:50;;;;;;;33.10;26.93;;;;;;;10.50;37.26;98921.28;8319578;28;20232;-65
2022/03/25 06:25:54;;;;;;;36.60;27.07;;;;;;;10.71;36.72;98917.22;8340071;28;20274;-65
2022/03/25 06:29:58;;;;;;;36.27;28.60;;;;;;;11.03;36.49;98924.03;8343744;28;20239;-65
2022/03/25 06:34:01;;;;;;;37.27;29.10;;;;;;;11.11;36.60;98922.03;8330826;28;20229;-65
2022/03/25 06:38:05;;;;;;;39.50;28.37;;;;;;;11.44;36.28;98924.47;8349067;28;20431;-65
2022/03/25 06:42:09;;;;;;;34.60;27.87;;;;;;;11.81;35.23;98918.03;8348698;28;20236;-65
2022/03/25 06:46:12;;;;;;;34.20;30.50;;;;;;;12.11;35.64;98926.53;8338950;28;20525;-65
2022/03/25 06:50:17;;;;;;;40.90;31.03;;;;;;;12.28;35.34;98936.34;8348399;28;20431;-65
2022/03/25 06:54:20;;;;;;;37.93;31.63;;;;;;;12.43;34.84;98934.94;8348544;28;20232;-65
2022/03/25 06:58:25;;;;;;;34.67;30.93;;;;;;;12.68;34.78;98937.47;8348497;28;20258;-65
2022/03/25 07:02:29;;;;;;;36.80;30.33;;;;;;;12.94;34.70;98937.38;8348229;28;20235;-65
2022/03/25 07:06:33;;;;;;;40.30;32.77;;;;;;;12.89;35.11;98942.75;8337602;28;20243;-67
2022/03/25 07:10:36;;;;;;;36.60;30.83;;;;;;;13.32;34.56;98953.28;8347244;28;20232;-65
2022/03/25 07:14:41;;;;;;;39.60;30.67;;;;;;;13.58;34.53;98950.47;8347397;28;20232;-65
2022/03/25 07:18:44;;;;;;;33.23;29.63;;;;;;;13.86;34.76;98949.34;8347226;28;20243;-65
2022/03/25 07:22:51;;;;;;;34.40;30.63;;;;;;;13.97;34.45;98954.91;8347368;28;20231;-66
2022/03/25 07:26:54;;;;;;;38.50;31.20;;;;;;;14.15;33.57;98955.06;8347509;28;20406;-65
2022/03/25 07:30:59;;;;;;;33.90;29.93;;;;;;;14.33;33.50;98956.84;8347236;28;20232;-65
2022/03/25 07:35:02;;;;;;;34.90;30.57;;;;;;;14.66;33.50;98967.56;8343394;28;20229;-65
2022/03/25 07:39:06;;;;;;;34.70;30.43;;;;;;;14.96;33.17;98966.22;8314424;28;20566;-65
2022/03/25 07:43:09;;;;;;;43.17;32.57;;;;;;;14.93;33.48;98967.22;8314147;28;20524;-67
2022/03/25 07:47:13;;;;;;;36.00;30.03;;;;;;;15.23;33.30;98969.28;8340105;28;20247;-65
2022/03/25 07:51:16;;;;;;;35.13;31.43;;;;;;;15.50;33.04;98977.59;8346545;28;20531;-65
2022/03/25 07:55:20;;;;;;;35.90;32.10;;;;;;;16.02;32.37;98968.97;8344528;28;20235;-65
2022/03/25 07:59:23;;;;;;;34.83;31.27;;;;;;;16.42;31.61;98974.75;8329734;28;20340;-65
2022/03/25 08:03:29;;;;;;;41.43;33.70;;;;;;;16.55;29.67;98974.97;8330310;28;20570;-65
2022/03/25 08:07:32;;;;;;;36.07;32.23;;;;;;;16.93;28.91;98972.94;8332180;28;20244;-65
2022/03/25 08:11:35;;;;;;;38.50;32.97;;;;;;;17.35;28.58;98975.88;8346610;28;20550;-66
2022/03/25 08:15:38;;;;;;;45.27;33.90;;;;;;;17.24;27.77;98976.47;8346720;28;20238;-65
2022/03/25 08:19:43;;;;;;;35.60;31.80;;;;;;;17.68;28.16;98970.50;8346580;28;20243;-65
2022/03/25 08:28:07;;;;;;;38.07;31.40;;;;;;;18.38;26.87;98971.72;8346563;28;20539;-65
2022/03/25 08:32:10;;;;;;;35.67;31.87;;;;;;;18.44;26.86;98980.03;8331392;28;20232;-66
2022/03/25 08:36:16;;;;;;;37.03;33.00;;;;;;;18.30;27.20;98972.19;8313830;28;20240;-65
2022/03/25 08:40:22;;;;;;;35.80;31.50;;;;;;;18.55;26.91;98976.78;8313591;28;20278;-66
2022/03/25 08:44:25;;;;;;;35.73;31.90;;;;;;;18.71;26.31;98980.13;8316546;28;20259;-66
2022/03/25 08:48:28;;;;;;;35.80;31.53;;;;;;;19.05;26.37;98985.09;8346160;28;20244;-66
2022/03/25 08:52:32;;;;;;;35.70;31.73;;;;;;;18.94;26.46;98976.13;8337523;28;20553;-65
2022/03/25 08:56:38;;;;;;;36.23;32.30;;;;;;;19.45;26.30;98987.81;8349710;28;20466;-66
2022/03/25 09:00:41;;;;;;;37.03;31.47;;;;;;;19.56;26.02;98982.72;8351897;28;20242;-66
2022/03/25 09:04:46;;;;;;;34.70;30.90;;;;;;;20.09;25.57;98988.03;8351599;28;20243;-66
2022/03/25 09:08:51;;;;;;;35.10;31.40;;;;;;;20.19;24.95;98977.72;8351355;28;20243;-65
2022/03/25 09:12:54;;;;;;;40.63;34.13;;;;;;;20.30;24.59;98969.94;8351372;28;20547;-66
2022/03/25 09:16:57;;;;;;;47.13;36.47;;;;;;;20.56;23.11;98976.03;8351404;28;20246;-66
2022/03/25 09:21:00;;;;;;;45.47;37.67;;;;;;;20.88;23.09;98979.06;8351370;28;20406;-65
2022/03/25 09:25:07;;;;;;;38.47;31.37;;;;;;;21.05;22.93;98985.75;8351164;28;20429;-66
2022/03/25 09:29:10;;;;;;;44.40;31.80;;;;;;;21.39;24.07;98985.13;8341345;28;20231;-66
2022/03/25 09:33:13;;;;;;;37.47;33.13;;;;;;;21.27;23.75;98978.97;8335014;28;20240;-66
2022/03/25 09:37:17;;;;;;;39.47;31.60;;;;;;;21.45;23.60;98988.16;8344189;28;20235;-66
2022/03/25 09:41:21;;;;;;;35.27;31.47;;;;;;;21.82;23.34;98976.72;8350866;28;20239;-66
2022/03/25 09:45:25;;;;;;;39.53;32.07;;;;;;;21.98;22.39;98977.25;8336006;28;20259;-66
2022/03/25 09:49:28;;;;;;;40.93;33.17;;;;;;;21.07;22.84;98981.22;8350394;28;20255;-66
2022/03/25 09:53:32;;;;;;;43.30;31.80;;;;;;;21.92;22.84;98974.25;8350315;28;20235;-66
2022/03/25 09:57:37;;;;;;;37.40;32.07;;;;;;;22.17;23.34;98978.50;8326582;28;20233;-64
2022/03/25 10:01:41;;;;;;;23.93;20.20;;;;;;;22.91;27.76;98978.94;8317251;28;20237;-61
2022/03/25 10:05:54;;;;;;;41.23;31.80;;;;;;;22.19;22.51;98964.22;8316697;28;20243;-61
2022/03/25 10:10:18;;;;;;;41.90;31.97;;;;;;;22.12;22.09;98976.19;8330066;28;20530;-61
2022/03/25 10:14:24;;;;;;;35.97;29.57;;;;;;;22.61;23.53;98976.88;8329812;28;20412;-62
2022/03/25 10:18:27;;;;;;;34.53;30.47;;;;;;;23.06;22.19;98968.97;8332452;28;20462;-61
2022/03/25 10:22:30;;;;;;;41.73;33.27;;;;;;;22.80;20.54;98963.91;8329492;28;20327;-61
2022/03/25 10:26:37;;;;;;;41.93;33.20;;;;;;;21.77;19.72;98965.69;8329368;28;20239;-63
2022/03/25 10:30:42;;;;;;;47.90;34.80;;;;;;;21.25;20.36;98979.06;8334804;28;20238;-62
2022/03/25 10:34:45;;;;;;;39.97;31.67;;;;;;;22.51;20.69;98968.84;8340378;28;20236;-63
2022/03/25 10:38:49;;;;;;;38.30;30.37;;;;;;;22.94;20.96;98970.78;8349012;28;20249;-62
2022/03/25 10:43:04;;;;;;;45.17;35.03;;;;;;;22.28;19.03;98962.72;8348715;28;20237;-61
2022/03/25 10:47:24;;;;;;;39.43;32.57;;;;;;;23.11;19.77;98960.66;8348456;28;20552;-62
2022/03/25 10:51:27;;;;;;;36.60;31.57;;;;;;;23.56;19.29;98963.19;8348001;28;20236;-62
2022/03/25 10:55:30;;;;;;;36.27;31.83;;;;;;;23.51;20.13;98960.91;8325461;28;20237;-61
2022/03/25 10:59:35;;;;;;;38.57;30.70;;;;;;;22.73;22.11;98957.47;8333806;28;20243;-62
2022/03/25 11:03:42;;;;;;;37.27;29.50;;;;;;;23.02;20.86;98964.88;8328903;28;20231;-62
2022/03/25 11:07:46;;;;;;;40.10;31.23;;;;;;;23.48;19.46;98955.06;8330423;28;20236;-62
2022/03/25 11:11:50;;;;;;;40.57;31.67;;;;;;;23.80;18.91;98960.34;8330877;28;20241;-62
2022/03/25 11:15:56;;;;;;;39.37;30.77;;;;;;;23.38;19.15;98947.00;8335254;28;20231;-62
2022/03/25 11:20:01;;;;;;;42.27;34.07;;;;;;;23.39;18.87;98954.81;8324748;28;20426;-62
2022/03/25 11:24:06;;;;;;;36.27;31.77;;;;;;;23.56;18.97;98952.59;8322659;28;20239;-61
2022/03/25 11:28:12;;;;;;;37.97;31.77;;;;;;;23.61;19.41;98945.97;8332208;28;20230;-64
2022/03/25 11:32:16;;;;;;;42.90;31.63;;;;;;;23.66;18.25;98937.66;8330326;28;20228;-66
2022/03/25 11:36:24;;;;;;;28.87;25.70;;;;;;;23.63;20.24;98943.22;8320834;28;20563;-62
2022/03/25 11:40:28;;;;;;;32.00;28.57;;;;;;;23.41;18.77;98941.50;8314120;28;20236;-61
2022/03/25 11:44:31;;;;;;;33.23;29.73;;;;;;;23.50;17.79;98934.63;8318363;28;20442;-62
2022/03/25 11:48:36;;;;;;;32.83;28.93;;;;;;;23.49;18.11;98938.22;8347134;28;20231;-62
2022/03/25 11:52:42;;;;;;;31.83;26.10;;;;;;;23.39;19.85;98925.75;8342547;28;20239;-62
2022/03/25 11:56:50;;;;;;;28.57;22.77;;;;;;;23.49;17.28;98914.41;8335042;28;20514;-62
2022/03/25 12:00:55;;;;;;;28.83;23.23;;;;;;;23.16;21.22;98925.00;8346999;28;20239;-62
2022/03/25 12:04:59;;;;;;;33.43;27.20;;;;;;;23.20;18.43;98909.72;8332220;28;20570;-62
2022/03/25 12:09:06;;;;;;;32.83;27.50;;;;;;;22.78;19.73;98909.56;8329724;28;20236;-61
2022/03/25 12:13:11;;;;;;;34.93;26.87;;;;;;;23.14;18.44;98919.00;8332652;28;20293;-61
2022/03/25 12:17:23;;;;;;;37.07;29.87;;;;;;;23.30;17.51;98909.81;8346642;28;20235;-63
2022/03/25 12:21:50;;;;;;;38.23;27.13;;;;;;;23.61;19.14;98906.31;8346440;28;20239;-66
2022/03/25 12:25:56;;;;;;;34.53;28.77;;;;;;;23.34;17.30;98895.38;8330895;28;20245;-62
2022/03/25 12:29:59;;;;;;;31.93;27.33;;;;;;;23.60;17.40;98894.06;8332229;28;20251;-62
2022/03/25 12:34:06;;;;;;;31.57;27.50;;;;;;;23.80;17.28;98887.13;8334921;28;20228;-62
2022/03/25 12:38:19;;;;;;;29.67;24.97;;;;;;;23.91;18.07;98898.59;8337830;28;20239;-62
2022/03/25 12:42:28;;;;;;;31.60;24.47;;;;;;;23.93;18.52;98889.59;8331598;28;20232;-61
2022/03/25 12:46:31;;;;;;;33.50;28.53;;;;;;;23.71;18.23;98893.16;8335165;28;20240;-61
2022/03/25 12:50:34;;;;;;;33.57;28.40;;;;;;;23.95;16.87;98887.66;8334955;28;20258;-62
2022/03/25 12:54:39;;;;;;;32.23;27.60;;;;;;;23.70;17.46;98888.00;8335021;28;20228;-61
2022/03/25 12:58:44;;;;;;;33.33;24.23;;;;;;;23.63;18.14;98882.41;8319176;28;20570;-61
2022/03/25 13:02:47;;;;;;;31.80;28.37;;;;;;;23.77;17.79;98875.94;8318827;28;20240;-62
2022/03/25 13:06:50;;;;;;;30.23;23.23;;;;;;;23.96;18.84;98872.59;8318568;28;20327;-62
2022/03/25 13:10:59;;;;;;;32.67;27.00;;;;;;;24.06;17.75;98873.47;8318662;28;20256;-61
2022/03/25 13:15:04;;;;;;;35.17;27.07;;;;;;;23.83;17.17;98864.88;8318856;28;20232;-68
2022/03/25 13:19:07;;;;;;;33.63;29.77;;;;;;;23.79;16.79;98864.28;8318512;28;20254;-67
2022/03/25 13:23:12;;;;;;;33.87;26.10;;;;;;;24.09;17.81;98859.16;8317920;28;20233;-66
2022/03/25 13:27:15;;;;;;;32.47;27.07;;;;;;;23.92;18.53;98861.44;8341717;28;20236;-62
2022/03/25 13:31:23;;;;;;;30.07;24.60;;;;;;;24.02;19.06;98860.66;8350559;28;20250;-61
2022/03/25 13:35:37;;;;;;;31.80;27.17;;;;;;;24.13;17.07;98850.00;8350752;28;20550;-61
2022/03/25 13:39:41;;;;;;;30.03;22.33;;;;;;;24.36;19.32;98855.94;8350539;28;20239;-62
2022/03/25 13:43:45;;;;;;;34.03;28.33;;;;;;;23.80;16.77;98852.75;8350090;28;20235;-61
2022/03/25 13:47:59;;;;;;;29.27;19.53;;;;;;;24.12;18.70;98850.94;8350521;28;20242;-61
2022/03/25 13:52:07;;;;;;;29.70;26.37;;;;;;;24.24;17.77;98849.03;8350413;28;20240;-61
2022/03/25 13:56:13;;;;;;;34.93;27.93;;;;;;;23.78;18.23;98844.13;8349659;28;20242;-61
2022/03/25 14:00:18;;;;;;;23.83;20.97;;;;;;;23.86;20.43;98842.63;8349651;28;20236;-61
2022/03/25 14:04:26;;;;;;;30.07;26.37;;;;;;;23.82;18.06;98842.06;8349545;28;20236;-61
2022/03/25 14:08:34;;;;;;;32.17;28.50;;;;;;;23.83;17.15;98835.78;8349137;28;20559;-62
2022/03/25 14:12:36;;;;;;;31.93;26.63;;;;;;;23.85;17.48;98828.53;8349536;28;20246;-62
2022/03/25 14:16:39;;;;;;;30.57;25.50;;;;;;;23.90;18.01;98831.63;8349619;28;20548;-61
2022/03/25 14:20:44;;;;;;;32.40;27.43;;;;;;;23.70;17.83;98824.53;8349464;28;20259;-62
2022/03/25 14:24:50;;;;;;;29.63;24.83;;;;;;;23.65;18.60;98827.59;8346000;28;20522;-61
2022/03/25 14:28:58;;;;;;;36.73;30.63;;;;;;;23.41;16.97;98825.19;8349378;28;20239;-61
2022/03/25 14:33:01;;;;;;;26.33;21.07;;;;;;;23.52;20.38;98824.31;8348978;28;20246;-60
2022/03/25 14:37:06;;;;;;;38.27;29.00;;;;;;;23.50;17.84;98813.03;8348882;28;20257;-60
2022/03/25 14:41:09;;;;;;;32.73;24.73;;;;;;;23.55;19.05;98814.31;8348361;28;20295;-61
2022/03/25 14:45:13;;;;;;;27.33;23.73;;;;;;;23.54;19.56;98814.44;8348514;28;20434;-61
2022/03/25 14:49:16;;;;;;;26.70;22.57;;;;;;;23.50;21.95;98813.03;8348393;28;20239;-62
2022/03/25 14:53:21;;;;;;;33.40;26.13;;;;;;;23.18;17.62;98811.25;8347454;28;20243;-61
2022/03/25 14:57:25;;;;;;;34.97;29.33;;;;;;;22.88;17.41;98812.78;8348031;28;20243;-63
2022/03/25 15:01:29;;;;;;;31.67;27.97;;;;;;;22.78;19.86;98806.59;8345110;28;22695;-63
2022/03/25 15:05:32;;;;;;;27.17;22.33;;;;;;;22.90;22.94;98812.66;8347637;28;20259;-61
2022/03/25 15:09:37;;;;;;;25.80;20.40;;;;;;;22.84;23.10;98809.56;8341954;28;20240;-61
2022/03/25 15:13:41;;;;;;;25.93;21.33;;;;;;;23.06;20.88;98807.00;8314865;28;20537;-61
2022/03/25 15:17:45;;;;;;;28.03;22.77;;;;;;;22.67;21.94;98810.09;8314751;28;20240;-61
2022/03/25 15:21:49;;;;;;;22.97;18.53;;;;;;;22.68;23.74;98817.06;8314686;28;20248;-62
2022/03/25 15:25:53;;;;;;;24.93;20.40;;;;;;;22.50;22.18;98810.63;8326371;28;20549;-61
2022/03/25 15:34:30;;;;;;;23.97;20.90;;;;;;;22.12;22.60;98807.38;8346653;28;20270;-61
2022/03/25 15:38:53;;;;;;;22.23;19.33;;;;;;;22.13;21.42;98810.88;8346959;28;20243;-60
2022/03/25 15:42:58;;;;;;;29.10;22.13;;;;;;;22.03;19.73;98805.50;8347171;28;20257;-60
2022/03/25 15:47:02;;;;;;;24.93;21.80;;;;;;;21.97;21.43;98809.44;8347072;28;20447;-60
2022/03/25 15:51:05;;;;;;;26.13;20.13;;;;;;;21.91;22.57;98807.25;8343725;28;20243;-60
2022/03/25 15:55:08;;;;;;;22.77;19.03;;;;;;;21.68;25.10;98806.41;8346914;28;20529;-60
2022/03/25 15:59:13;;;;;;;20.03;16.60;;;;;;;21.71;23.76;98808.00;8346447;28;20555;-60
2022/03/25 16:03:16;;;;;;;24.73;20.10;;;;;;;21.56;25.76;98810.81;8347169;28;20238;-60
2022/03/25 16:07:19;;;;;;;22.47;18.70;;;;;;;21.43;25.01;98810.88;8353372;28;20242;-60
2022/03/25 16:11:25;;;;;;;32.80;27.50;;;;;;;21.09;22.23;98805.53;8353408;28;20266;-60
2022/03/25 16:15:30;;;;;;;35.22;27.90;;;;;;;21.25;19.98;98807.03;8352265;28;20423;-63
2022/03/25 16:19:33;;;;;;;35.33;28.10;;;;;;;20.79;19.76;98810.41;8353271;28;20237;-64
2022/03/25 16:23:37;;;;;;;34.43;28.53;;;;;;;20.27;19.47;98814.97;8346847;28;20239;-63
2022/03/25 16:27:40;;;;;;;37.23;30.70;;;;;;;20.10;19.80;98813.53;8346212;28;20238;-63
2022/03/25 16:31:45;;;;;;;37.20;31.43;;;;;;;20.09;20.41;98819.75;8335805;28;20241;-63
2022/03/25 16:35:48;;;;;;;36.83;31.00;;;;;;;19.72;20.74;98822.28;8327397;28;20241;-64
2022/03/25 16:39:51;;;;;;;41.63;29.77;;;;;;;19.67;21.11;98813.84;8319247;28;20566;-63
2022/03/25 16:43:58;;;;;;;32.77;28.30;;;;;;;19.50;21.25;98818.44;8340215;28;20240;-63
2022/03/25 16:48:03;;;;;;;32.13;27.70;;;;;;;19.44;21.53;98818.88;8352117;28;20232;-64
2022/03/25 16:52:07;;;;;;;33.40;29.67;;;;;;;19.33;21.86;98819.56;8351933;28;20232;-63
2022/03/25 16:56:10;;;;;;;34.00;29.23;;;;;;;19.22;22.09;98826.50;8351497;28;20423;-63
2022/03/25 17:00:15;;;;;;;38.23;29.33;;;;;;;19.02;22.22;98825.16;8343674;28;20228;-63
2022/03/25 17:04:20;;;;;;;41.27;29.97;;;;;;;18.85;22.33;98821.00;8318894;28;20237;-63
2022/03/25 17:08:23;;;;;;;36.93;29.10;;;;;;;18.83;22.39;98831.63;8318532;28;20248;-64
2022/03/25 17:12:26;;;;;;;37.00;29.90;;;;;;;18.68;22.77;98840.47;8318819;28;20236;-64
2022/03/25 17:16:30;;;;;;;39.53;31.33;;;;;;;18.61;23.21;98841.78;8317572;28;20248;-63
2022/03/25 17:20:34;;;;;;;36.40;29.93;;;;;;;18.45;23.17;98844.50;8318374;28;20233;-65
2022/03/25 17:24:38;;;;;;;39.33;29.87;;;;;;;18.35;23.64;98839.88;8320114;28;20251;-63
2022/03/25 17:28:41;;;;;;;36.47;29.93;;;;;;;18.25;23.65;98854.47;8351131;28;20295;-63
2022/03/25 17:32:44;;;;;;;33.17;28.37;;;;;;;18.25;24.01;98846.59;8350872;28;20547;-65
2022/03/25 17:36:49;;;;;;;39.13;28.30;;;;;;;18.08;24.53;98847.63;8347097;28;20241;-64
2022/03/25 17:40:52;;;;;;;34.15;28.55;;;;;;;18.24;24.07;98859.78;8317068;28;20428;-64
2022/03/25 17:44:59;;;;;;;33.87;28.57;;;;;;;18.02;24.50;98865.53;8319749;28;20304;-64
2022/03/25 17:49:02;;;;;;;33.03;27.90;;;;;;;17.91;24.78;98861.75;8341842;28;20243;-64
2022/03/25 17:53:07;;;;;;;34.67;28.03;;;;;;;17.86;24.73;98865.59;8350066;28;20243;-64
2022/03/25 17:57:10;;;;;;;41.67;28.57;;;;;;;17.66;25.19;98869.38;8349506;28;20453;-64
2022/03/25 18:01:13;;;;;;;38.03;28.37;;;;;;;17.57;25.39;98874.22;8350076;28;20243;-64
2022/03/25 18:05:17;;;;;;;35.03;28.80;;;;;;;17.47;25.58;98873.06;8349772;28;20243;-64
2022/03/25 18:09:21;;;;;;;38.70;28.40;;;;;;;17.29;25.70;98876.75;8349572;28;20244;-65
2022/03/25 18:13:24;;;;;;;40.37;29.10;;;;;;;17.20;25.57;98878.97;8349471;28;20247;-64
2022/03/25 18:17:28;;;;;;;38.10;28.17;;;;;;;17.23;25.66;98891.03;8349281;28;20236;-64
2022/03/25 18:21:32;;;;;;;38.43;28.50;;;;;;;17.14;25.48;98891.56;8349157;28;20232;-64
2022/03/25 18:25:37;;;;;;;36.72;28.85;;;;;;;17.05;25.43;98894.69;8342691;28;20738;-65
2022/03/25 18:29:40;;;;;;;36.63;30.35;;;;;;;17.50;25.01;98898.25;8314332;28;20408;-65
2022/03/25 18:33:43;;;;;;;35.43;28.67;;;;;;;16.90;26.24;98899.84;8316208;28;20255;-65
2022/03/25 18:37:46;;;;;;;36.70;29.83;;;;;;;16.69;26.68;98903.59;8315965;28;20251;-65
2022/03/25 18:41:50;;;;;;;37.83;30.00;;;;;;;16.56;26.44;98909.53;8316066;28;20417;-65
2022/03/25 18:45:53;;;;;;;39.13;29.43;;;;;;;16.47;26.62;98910.00;8315820;28;20233;-65
2022/03/25 18:49:57;;;;;;;37.70;28.57;;;;;;;16.60;26.54;98912.78;8315875;28;20252;-65
2022/03/25 18:54:00;;;;;;;38.03;27.57;;;;;;;16.44;26.73;98920.63;8315511;28;20243;-65
2022/03/25 18:58:04;;;;;;;36.20;27.23;;;;;;;16.45;26.46;98917.09;8315365;28;20233;-65